Home PIREPS Pireps

Flight BEL2902

  • Submitted By: Vincent Fourni
  • Departure Airport: Flughafen Wien-Schwechat (LOWW)
  • Arrival Airport: Bruxelles National (EBBR)
  • Aircraft: A320-214 (OO-SNA)
  • Flight Time: 01.31
  • Date Submitted: 12/01/2018
  • Status: Accepted
Flight Details
Gross Revenue:
(137 load / € 125.00 per unit
€ 17,125.00
Fuel Cost:
(3641 fuel used @ 5.1 / unit)
€ 18,569.10

Additional Log Information:

View Log

Aircraft Used in flight is PMDG 737-800NGX Brussels Airlines Winglets
21:00 Brakes are On
21:02 Brakes are Released
21:07 You Took off @ 157 Knots and Flaps at Position 3
Departure Weather
LOWW 121950Z 35006KT 9999 FEW010 OVC013 03/01 Q1026 NOSIGrn
21:07 Landing Gear Up @ 158 Knots and 950 Feet
21:10 Above FL100 you need to switch of the landing lights
22:15 Above FL100 you need to switch of the landing lights
22:22 Landing Gear Down @ 181 Knots and 3600 Feet
22:26 You Landed @ 115 Knots and with -200 Vertical Speed
Arrival Weather
EBBR 122050Z 09002KT 3300 BR FEW010 05/04 Q1026 NOSIGrn
22:26 Paused
22:31 Unpaused
22:31 Brakes are On
22:35 Brussels Bel-Track1.0.1.2

Route Map

Corporate About Us Our Team Vacancies Information Fleet Route Network Rules and Regulations Operations Flight Schedules Event Center Tours Partners IVAO Vatsim Acars dev FSCB

fb Users Online Belgium Dominique Dory, South Africa Marc Toussaint,
2 Pilot(s) and 139 Guest(s) Online
CMS by phpVMS - Design by Crazycreatives.com - Copyright © 2020 - Brussels Airlines Virtual